Mahajanga, Madagascar
Current Conditions -  °F | °C
As of 6:00 PM on Wednesday 22 Oct 2014 (Local Time) from FMNM Reporting Station
Few Clouds Few Clouds  
Wind Chill: 81°   Ceiling: Unl
Heat Index: 84°   Visibility: 6mi
Dew Point: 70°   Wind: 9mph
Humidity: 70%   Direction: 300°WNW
Pressure: 29.88"   Gusts: NA
Location:  15.72°S, 46.31°E
Report Text: FMNM 221500Z 30008KT 9999 FEW023 27/21 Q1012 NOSIG
Loading
Personal Weather Stations






























Interactive Weather Map
Tropical Storm Tracking
New forecast layout! Learn more

10-Day Weather Forecast

Advertisements
Track Severe Weather on mobile